Time;durP1;ratioP1;P1;durP2;ratioP2;P2;SDS_P1;SDS_P2;PMS_P1;PMS_P2;Temp;Humidity;BMP_temperature;BMP_pressure;BME280_temperature;BME280_humidity;BME280_pressure;Samples;Min_cycle;Max_cycle;Signal;HPM_P1;HPM_P2
2022/11/13 00:00:57;;;;;;;12.23;8.40;;;5.30;99.90;;;;;;5092093;28;20118;-71
2022/11/13 00:03:23;;;;;;;13.75;8.27;;;5.20;99.90;;;;;;5091783;28;20055;-71
2022/11/13 00:05:59;;;;;;;11.82;8.05;;;5.20;99.90;;;;;;5092471;28;20063;-70
2022/11/13 00:08:24;;;;;;;15.35;8.88;;;5.10;99.90;;;;;;5091185;28;20777;-71
2022/11/13 00:10:50;;;;;;;14.05;8.70;;;5.10;99.90;;;;;;5090926;28;20039;-71
2022/11/13 00:13:15;;;;;;;13.45;7.82;;;5.10;99.90;;;;;;5090448;28;20032;-71
2022/11/13 00:15:41;;;;;;;13.50;8.30;;;5.20;99.90;;;;;;5091251;28;20032;-70
2022/11/13 00:18:06;;;;;;;14.68;9.57;;;5.10;99.90;;;;;;5091591;28;20024;-70
2022/11/13 00:20:32;;;;;;;17.13;9.38;;;5.20;99.90;;;;;;5091161;28;20042;-71
2022/11/13 00:22:58;;;;;;;15.80;9.00;;;5.20;99.90;;;;;;5091379;28;20419;-71
2022/11/13 00:25:23;;;;;;;14.77;9.20;;;5.20;99.90;;;;;;5091619;28;20177;-70
2022/11/13 00:27:49;;;;;;;16.70;9.23;;;5.30;99.90;;;;;;5092303;28;20081;-70
2022/11/13 00:30:14;;;;;;;16.23;10.35;;;5.30;99.90;;;;;;5089997;28;20040;-71
2022/11/13 00:32:40;;;;;;;15.52;9.13;;;5.30;99.90;;;;;;5092284;28;20031;-70
2022/11/13 00:35:06;;;;;;;16.13;9.30;;;5.30;99.90;;;;;;5091476;28;20074;-70
2022/11/13 00:37:31;;;;;;;14.15;9.02;;;5.30;99.90;;;;;;5091358;28;20094;-68
2022/11/13 00:39:57;;;;;;;15.25;9.38;;;5.30;99.90;;;;;;5091473;28;20480;-70
2022/11/13 00:42:23;;;;;;;14.00;8.60;;;5.30;99.90;;;;;;5090017;28;20811;-71
2022/11/13 00:44:48;;;;;;;13.88;8.93;;;5.20;99.90;;;;;;5091194;28;20058;-71
2022/11/13 00:47:14;;;;;;;16.95;9.23;;;5.20;99.90;;;;;;5090209;28;20012;-71
2022/11/13 00:49:39;;;;;;;15.10;9.35;;;5.10;99.90;;;;;;5091645;28;20027;-71
2022/11/13 00:52:05;;;;;;;14.60;9.52;;;5.10;99.90;;;;;;5090759;28;20074;-69
2022/11/13 00:54:30;;;;;;;15.88;9.48;;;5.10;99.90;;;;;;5091653;28;20085;-71
2022/11/13 00:56:56;;;;;;;17.00;9.95;;;5.10;99.90;;;;;;5090387;28;20028;-71
2022/11/13 00:59:22;;;;;;;19.30;9.48;;;5.10;99.90;;;;;;5090646;28;20077;-71
2022/11/13 01:01:47;;;;;;;14.50;9.85;;;5.00;99.90;;;;;;5091817;28;20028;-71
2022/11/13 01:04:13;;;;;;;13.75;8.52;;;5.00;99.90;;;;;;5090250;28;20035;-71
2022/11/13 01:06:38;;;;;;;16.45;8.85;;;5.00;99.90;;;;;;5090982;28;20029;-72
2022/11/13 01:09:05;;;;;;;16.58;9.18;;;5.00;99.90;;;;;;5091195;28;20031;-70
2022/11/13 01:11:30;;;;;;;14.85;8.88;;;4.90;99.90;;;;;;5089609;28;20043;-71
2022/11/13 01:13:56;;;;;;;18.67;9.85;;;4.90;99.90;;;;;;5091171;28;20020;-71
2022/11/13 01:16:24;;;;;;;19.17;9.50;;;4.90;99.90;;;;;;5091201;28;20166;-71
2022/11/13 01:18:51;;;;;;;17.73;9.73;;;4.80;99.90;;;;;;5090767;28;20405;-71
2022/11/13 01:21:19;;;;;;;16.45;9.40;;;4.90;99.90;;;;;;5089502;28;20099;-71
2022/11/13 01:23:46;;;;;;;17.10;9.80;;;4.80;99.90;;;;;;5089999;28;20069;-71
2022/11/13 01:26:20;;;;;;;18.42;9.05;;;4.90;99.90;;;;;;5092917;28;20036;-71
2022/11/13 01:28:47;;;;;;;17.92;9.32;;;4.80;99.90;;;;;;5094507;28;20020;-68
2022/11/13 01:31:16;;;;;;;18.83;10.20;;;4.80;99.90;;;;;;5096874;28;20034;-71
2022/11/13 01:33:43;;;;;;;16.27;9.27;;;4.80;99.90;;;;;;5094300;28;20024;-71
2022/11/13 01:36:19;;;;;;;16.33;9.63;;;4.80;99.90;;;;;;5094914;28;20122;-71
2022/11/13 01:38:45;;;;;;;17.08;9.73;;;4.80;99.90;;;;;;5094548;28;20020;-70
2022/11/13 01:41:26;;;;;;;16.65;9.25;;;4.70;99.90;;;;;;5079070;28;20051;-71
2022/11/13 01:43:53;;;;;;;16.60;9.77;;;4.70;99.90;;;;;;5077841;28;20029;-71
2022/11/13 01:46:32;;;;;;;15.52;9.38;;;4.70;99.90;;;;;;5074393;28;20029;-71
2022/11/13 01:48:57;;;;;;;13.10;7.68;;;4.70;99.90;;;;;;5081659;28;20380;-71
2022/11/13 01:51:32;;;;;;;13.90;8.80;;;4.60;99.90;;;;;;5094480;28;20035;-70
2022/11/13 01:54:03;;;;;;;14.10;8.32;;;4.60;99.90;;;;;;5093394;28;20070;-70
2022/11/13 01:56:29;;;;;;;13.02;8.50;;;4.50;99.90;;;;;;5094731;28;20024;-70
2022/11/13 01:59:11;;;;;;;13.18;7.60;;;4.50;99.90;;;;;;5095103;28;20065;-71
2022/11/13 02:01:37;;;;;;;12.98;7.75;;;4.50;99.90;;;;;;5094277;28;20055;-71
2022/11/13 02:04:03;;;;;;;12.40;8.15;;;4.40;99.90;;;;;;5094031;28;20059;-71
2022/11/13 02:06:40;;;;;;;10.88;6.97;;;4.40;99.90;;;;;;5093364;28;20077;-72
2022/11/13 02:09:06;;;;;;;12.45;7.95;;;4.30;99.90;;;;;;5084010;28;20392;-71
2022/11/13 02:11:32;;;;;;;12.38;8.43;;;4.30;99.90;;;;;;5087158;28;20040;-71
2022/11/13 02:13:59;;;;;;;12.13;7.93;;;4.30;99.90;;;;;;5095272;28;20101;-72
2022/11/13 02:16:25;;;;;;;12.70;8.00;;;4.30;99.90;;;;;;5093909;28;20020;-69
2022/11/13 02:18:52;;;;;;;12.23;7.85;;;4.30;99.90;;;;;;5093045;28;20056;-72
2022/11/13 02:21:29;;;;;;;10.60;7.45;;;4.30;99.90;;;;;;5094080;28;20031;-71
2022/11/13 02:24:30;;;;;;;12.02;8.30;;;4.20;99.90;;;;;;5090691;28;20040;-71
2022/11/13 02:27:00;;;;;;;13.85;8.85;;;4.20;99.90;;;;;;5094255;28;20070;-71
2022/11/13 02:29:25;;;;;;;16.48;9.43;;;4.10;99.90;;;;;;5093529;28;20062;-71
2022/11/13 02:31:51;;;;;;;16.42;9.80;;;4.10;99.90;;;;;;5092807;28;20067;-70
2022/11/13 02:34:16;;;;;;;17.23;9.95;;;4.10;99.90;;;;;;5075317;28;20017;-68
2022/11/13 02:36:42;;;;;;;16.88;9.50;;;4.10;99.90;;;;;;5088657;28;20102;-71
2022/11/13 02:39:10;;;;;;;15.15;9.82;;;4.20;99.90;;;;;;5114041;28;20028;-71
2022/11/13 02:41:37;;;;;;;18.42;10.43;;;4.20;99.90;;;;;;5114269;28;20082;-71
2022/11/13 02:44:04;;;;;;;20.73;11.30;;;4.20;99.90;;;;;;5094395;28;20024;-71
2022/11/13 02:46:30;;;;;;;17.95;10.07;;;4.20;99.90;;;;;;5093988;28;20020;-71
2022/11/13 02:48:55;;;;;;;17.42;10.65;;;4.20;99.90;;;;;;5093878;28;20506;-71
2022/11/13 02:51:21;;;;;;;16.85;10.50;;;4.20;99.90;;;;;;5092550;28;20039;-69
2022/11/13 02:53:47;;;;;;;17.40;10.02;;;4.20;99.90;;;;;;5078382;28;20078;-71
2022/11/13 02:56:12;;;;;;;19.02;9.98;;;4.20;99.90;;;;;;5073164;28;20020;-71
2022/11/13 02:58:38;;;;;;;16.95;10.80;;;4.30;99.90;;;;;;5072912;28;20104;-71
2022/11/13 03:01:03;;;;;;;17.98;10.50;;;4.30;99.90;;;;;;5073512;28;20035;-65
2022/11/13 03:03:29;;;;;;;19.75;10.38;;;4.30;99.90;;;;;;5074240;28;20477;-71
2022/11/13 03:05:55;;;;;;;19.20;10.38;;;4.30;99.90;;;;;;5071368;28;20043;-71
2022/11/13 03:08:22;;;;;;;17.67;10.55;;;4.20;99.90;;;;;;5071750;28;20038;-71
2022/11/13 03:10:48;;;;;;;19.70;11.13;;;4.20;99.90;;;;;;5078603;28;20122;-71
2022/11/13 03:13:14;;;;;;;16.45;10.32;;;4.20;99.90;;;;;;5090505;28;20460;-71
2022/11/13 03:15:40;;;;;;;20.48;11.65;;;4.20;99.90;;;;;;5093437;28;20028;-70
2022/11/13 03:18:06;;;;;;;17.05;10.10;;;4.20;99.90;;;;;;5092497;28;20103;-71
2022/11/13 03:20:32;;;;;;;16.30;10.02;;;4.20;99.90;;;;;;5093578;28;20408;-71
2022/11/13 03:22:58;;;;;;;15.05;9.55;;;4.20;99.90;;;;;;5090397;28;20345;-71
2022/11/13 03:25:23;;;;;;;16.23;10.07;;;4.10;99.90;;;;;;5084438;28;20151;-71
2022/11/13 03:27:49;;;;;;;18.33;10.23;;;4.10;99.90;;;;;;5072942;28;20021;-70
2022/11/13 03:30:14;;;;;;;16.95;10.32;;;4.20;99.90;;;;;;5072355;28;20036;-71
2022/11/13 03:32:40;;;;;;;16.98;10.40;;;4.10;99.90;;;;;;5072947;28;20087;-70
2022/11/13 03:35:06;;;;;;;16.83;10.00;;;4.10;99.90;;;;;;5085489;28;20093;-70
2022/11/13 03:37:31;;;;;;;16.73;9.35;;;4.10;99.90;;;;;;5091463;28;20051;-71
2022/11/13 03:39:57;;;;;;;17.17;9.60;;;4.10;99.90;;;;;;5090854;28;20021;-71
2022/11/13 03:42:23;;;;;;;17.65;9.88;;;4.10;99.90;;;;;;5092201;28;20400;-71
2022/11/13 03:44:48;;;;;;;15.73;9.77;;;4.10;99.90;;;;;;5092835;28;20069;-69
2022/11/13 03:47:14;;;;;;;15.63;9.63;;;4.10;99.90;;;;;;5091972;28;20020;-70
2022/11/13 03:49:40;;;;;;;13.38;9.20;;;4.10;99.90;;;;;;5092880;28;20082;-72
2022/11/13 03:52:06;;;;;;;17.88;9.48;;;4.10;99.90;;;;;;5092281;28;20468;-71
2022/11/13 03:54:31;;;;;;;15.73;8.98;;;4.20;99.90;;;;;;5092216;28;20024;-71
2022/11/13 03:56:57;;;;;;;16.88;9.60;;;4.10;99.90;;;;;;5092532;28;20020;-71
2022/11/13 03:59:22;;;;;;;14.98;9.20;;;4.10;99.90;;;;;;5090786;28;20763;-71
2022/11/13 04:01:48;;;;;;;17.15;9.18;;;4.20;99.90;;;;;;5091821;28;20468;-71
2022/11/13 04:04:14;;;;;;;16.35;9.40;;;4.20;99.90;;;;;;5091931;28;20039;-71
2022/11/13 04:06:40;;;;;;;14.65;9.15;;;4.20;99.90;;;;;;5092540;28;20102;-71
2022/11/13 04:09:06;;;;;;;16.92;9.48;;;4.20;99.90;;;;;;5091211;28;20424;-71
2022/11/13 04:11:31;;;;;;;14.95;9.20;;;4.20;99.90;;;;;;5092479;28;20048;-71
2022/11/13 04:13:57;;;;;;;17.00;10.07;;;4.20;99.90;;;;;;5091730;28;20031;-71
2022/11/13 04:16:22;;;;;;;17.55;9.80;;;4.20;99.90;;;;;;5089909;28;20697;-70
2022/11/13 04:18:48;;;;;;;18.95;9.20;;;4.20;99.90;;;;;;5092289;28;20028;-71
2022/11/13 04:21:14;;;;;;;17.88;10.13;;;4.20;99.90;;;;;;5091053;28;20480;-72
2022/11/13 04:23:39;;;;;;;18.33;10.55;;;4.10;99.90;;;;;;5090724;28;20020;-70
2022/11/13 04:26:05;;;;;;;15.88;9.57;;;4.10;99.90;;;;;;5091213;28;20044;-69
2022/11/13 04:28:30;;;;;;;15.73;9.93;;;4.10;99.90;;;;;;5091527;28;20089;-70
2022/11/13 04:30:56;;;;;;;17.55;10.65;;;4.00;99.90;;;;;;5091630;28;20078;-72
2022/11/13 04:33:22;;;;;;;18.02;10.70;;;3.90;99.90;;;;;;5091859;28;20027;-71
2022/11/13 04:35:48;;;;;;;16.73;9.48;;;3.90;99.90;;;;;;5091270;28;20569;-69
2022/11/13 04:38:13;;;;;;;14.80;10.15;;;3.90;99.90;;;;;;5091670;28;20024;-71
2022/11/13 04:40:40;;;;;;;14.50;9.95;;;3.90;99.90;;;;;;5092110;28;20028;-71
2022/11/13 04:43:06;;;;;;;15.65;9.38;;;3.80;99.90;;;;;;5090692;28;20043;-71
2022/11/13 04:45:32;;;;;;;17.80;10.45;;;3.80;99.90;;;;;;5092919;28;20032;-71
2022/11/13 04:47:57;;;;;;;18.27;10.70;;;3.80;99.90;;;;;;5090039;28;20464;-70
2022/11/13 04:50:23;;;;;;;19.33;11.63;;;3.70;99.90;;;;;;5089003;28;20051;-70
2022/11/13 04:52:49;;;;;;;18.50;11.40;;;3.70;99.90;;;;;;5090005;28;20093;-63
2022/11/13 04:55:14;;;;;;;20.23;11.57;;;3.60;99.90;;;;;;5090926;28;20028;-67
2022/11/13 04:57:40;;;;;;;16.95;10.77;;;3.60;99.90;;;;;;5090312;28;20065;-63
2022/11/13 05:00:07;;;;;;;16.27;10.30;;;3.70;99.90;;;;;;5091633;28;20024;-68
2022/11/13 05:02:33;;;;;;;17.38;11.48;;;3.60;99.90;;;;;;5094995;28;20028;-65
2022/11/13 05:04:59;;;;;;;20.83;11.20;;;3.60;99.90;;;;;;5095082;28;20388;-70
2022/11/13 05:07:28;;;;;;;17.83;10.63;;;3.60;99.90;;;;;;5092598;28;20480;-70
2022/11/13 05:09:54;;;;;;;22.88;11.52;;;3.50;99.90;;;;;;5094797;28;20510;-68
2022/11/13 05:12:20;;;;;;;19.50;11.60;;;3.50;99.90;;;;;;5094404;28;20033;-70
2022/11/13 05:14:45;;;;;;;16.15;10.18;;;3.50;99.90;;;;;;5094892;28;20077;-70
2022/11/13 05:17:12;;;;;;;16.65;10.32;;;3.40;99.90;;;;;;5095239;28;20032;-70
2022/11/13 05:19:38;;;;;;;14.50;9.63;;;3.40;99.90;;;;;;5094779;28;20031;-70
2022/11/13 05:22:04;;;;;;;14.13;8.70;;;3.40;99.90;;;;;;5095259;28;20024;-69
2022/11/13 05:24:30;;;;;;;14.48;8.82;;;3.30;99.90;;;;;;5093918;28;20028;-67
2022/11/13 05:26:56;;;;;;;15.25;8.68;;;3.30;99.90;;;;;;5093421;28;20126;-71
2022/11/13 05:29:22;;;;;;;15.88;9.68;;;3.30;99.90;;;;;;5094242;28;20059;-70
2022/11/13 05:31:47;;;;;;;17.20;9.55;;;3.30;99.90;;;;;;5093891;28;20118;-70
2022/11/13 05:34:13;;;;;;;15.20;10.25;;;3.30;99.90;;;;;;5094316;28;20099;-70
2022/11/13 05:36:39;;;;;;;17.13;11.27;;;3.20;99.90;;;;;;5093157;28;20040;-70
2022/11/13 05:39:05;;;;;;;20.73;11.75;;;3.20;99.90;;;;;;5093231;28;20020;-67
2022/11/13 05:41:31;;;;;;;21.15;12.20;;;3.20;99.90;;;;;;5094571;28;20028;-70
2022/11/13 05:43:57;;;;;;;18.27;10.70;;;3.20;99.90;;;;;;5094206;28;20468;-70
2022/11/13 05:46:28;;;;;;;17.83;10.60;;;3.10;99.90;;;;;;5093438;28;20028;-70
2022/11/13 05:48:59;;;;;;;18.48;10.80;;;3.10;99.90;;;;;;5094229;28;20035;-70
2022/11/13 05:51:26;;;;;;;;;;;3.10;99.90;;;;;;5094679;28;20219;-71
2022/11/13 05:53:52;;;;;;;14.65;8.10;;;3.00;99.90;;;;;;5091998;28;19904;-70
2022/11/13 05:56:24;;;;;;;13.93;8.88;;;3.00;99.90;;;;;;5094140;28;20032;-69
2022/11/13 05:58:50;;;;;;;12.63;8.23;;;2.90;99.90;;;;;;5093814;28;20055;-70
2022/11/13 06:01:27;;;;;;;12.55;8.75;;;2.80;99.90;;;;;;5089705;28;20031;-70
2022/11/13 06:03:58;;;;;;;16.48;9.43;;;2.70;99.90;;;;;;5091743;28;20032;-70
2022/11/13 06:06:25;;;;;;;17.27;10.23;;;2.70;99.90;;;;;;5092182;28;20030;-70
2022/11/13 06:08:52;;;;;;;18.85;11.75;;;2.70;99.90;;;;;;5093154;28;20016;-70
2022/11/13 06:11:20;;;;;;;19.48;12.27;;;2.70;99.90;;;;;;5092791;28;20074;-70
2022/11/13 06:13:47;;;;;;;24.10;14.27;;;2.70;99.90;;;;;;5092379;28;20024;-71
2022/11/13 06:16:18;;;;;;;23.10;12.73;;;2.80;99.90;;;;;;5092730;28;20027;-71
2022/11/13 06:18:44;;;;;;;;;;;2.80;99.90;;;;;;5094534;28;20439;-69
2022/11/13 06:21:13;;;;;;;19.83;11.38;;;2.80;99.90;;;;;;5092740;28;19996;-70
2022/11/13 06:23:39;;;;;;;22.05;13.82;;;2.80;99.90;;;;;;5093657;28;20031;-70
2022/11/13 06:26:09;;;;;;;22.27;12.85;;;2.80;99.90;;;;;;5092801;28;20377;-70
2022/11/13 06:28:36;;;;;;;20.35;12.02;;;2.80;99.90;;;;;;5092691;28;20034;-70
2022/11/13 06:31:10;;;;;;;27.85;14.85;;;2.80;99.90;;;;;;5093601;28;20032;-71
2022/11/13 06:33:36;;;;;;;23.60;13.85;;;2.80;99.90;;;;;;5093719;28;20110;-71
2022/11/13 06:36:05;;;;;;;24.80;14.45;;;2.80;99.90;;;;;;5092585;28;20080;-70
2022/11/13 06:38:35;;;;;;;22.63;12.88;;;2.80;99.90;;;;;;5092081;28;20032;-70
2022/11/13 06:41:02;;;;;;;25.67;14.05;;;2.80;99.90;;;;;;5092843;28;20028;-71
2022/11/13 06:43:29;;;;;;;25.30;14.38;;;2.80;99.90;;;;;;5092233;28;20533;-71
2022/11/13 06:45:55;;;;;;;21.85;13.45;;;2.80;99.90;;;;;;5092958;28;20020;-71
2022/11/13 06:48:21;;;;;;;21.45;14.18;;;2.80;99.90;;;;;;5092452;28;20035;-67
2022/11/13 06:50:47;;;;;;;22.88;13.80;;;2.80;99.90;;;;;;5092588;28;20036;-71
2022/11/13 06:53:13;;;;;;;20.08;12.05;;;2.80;99.90;;;;;;5092629;28;20066;-66
2022/11/13 06:55:46;;;;;;;21.13;12.15;;;2.70;99.90;;;;;;5093110;28;20035;-69
2022/11/13 06:58:13;;;;;;;19.13;11.20;;;2.70;99.90;;;;;;5091921;28;20531;-70
2022/11/13 07:00:39;;;;;;;16.05;11.20;;;2.60;99.90;;;;;;5091454;28;20043;-70
2022/11/13 07:03:05;;;;;;;22.35;11.45;;;2.50;99.90;;;;;;5091633;28;20477;-67
2022/11/13 07:05:30;;;;;;;18.95;12.30;;;2.50;99.90;;;;;;5092844;28;20026;-70
2022/11/13 07:07:56;;;;;;;19.48;10.20;;;2.50;99.90;;;;;;5092334;28;20111;-70
2022/11/13 07:10:22;;;;;;;20.00;12.40;;;2.40;99.90;;;;;;5091451;28;20027;-70
2022/11/13 07:12:47;;;;;;;18.17;10.88;;;2.40;99.90;;;;;;5092455;28;20071;-69
2022/11/13 07:15:15;;;;;;;19.30;11.23;;;2.40;99.90;;;;;;5091989;28;20109;-70
2022/11/13 07:17:40;;;;;;;18.25;11.07;;;2.40;99.90;;;;;;5092003;28;20032;-70
2022/11/13 07:20:07;;;;;;;16.85;10.32;;;2.40;99.90;;;;;;5091929;28;20093;-70
2022/11/13 07:22:32;;;;;;;16.20;10.63;;;2.40;99.90;;;;;;5092421;28;20067;-70
2022/11/13 07:24:58;;;;;;;18.75;12.18;;;2.40;99.90;;;;;;5091452;28;20096;-69
2022/11/13 07:27:23;;;;;;;20.90;13.13;;;2.40;99.90;;;;;;5092291;28;20069;-70
2022/11/13 07:29:49;;;;;;;18.95;12.27;;;2.40;99.90;;;;;;5091934;28;20088;-68
2022/11/13 07:32:15;;;;;;;18.35;11.23;;;2.40;99.90;;;;;;5091287;28;20028;-70
2022/11/13 07:34:41;;;;;;;21.65;12.63;;;2.40;99.90;;;;;;5092055;28;20032;-70
2022/11/13 07:37:07;;;;;;;20.63;13.30;;;2.40;99.90;;;;;;5090602;28;20027;-70
2022/11/13 07:39:32;;;;;;;19.13;11.80;;;2.50;99.90;;;;;;5090317;28;20040;-70
2022/11/13 07:41:58;;;;;;;21.25;12.25;;;2.50;99.90;;;;;;5090435;28;20027;-71
2022/11/13 07:44:23;;;;;;;19.80;12.35;;;2.60;99.90;;;;;;5091843;28;20077;-69
2022/11/13 07:46:49;;;;;;;23.05;12.63;;;2.60;99.90;;;;;;5090102;28;20472;-70
2022/11/13 07:49:14;;;;;;;21.85;12.10;;;2.60;99.90;;;;;;5091309;28;20077;-70
2022/11/13 07:51:40;;;;;;;25.42;13.95;;;2.60;99.90;;;;;;5090709;28;20077;-70
2022/11/13 07:54:06;;;;;;;21.90;12.75;;;2.70;99.90;;;;;;5090464;28;20111;-68
2022/11/13 07:56:31;;;;;;;23.33;13.15;;;2.70;99.90;;;;;;5090941;28;20365;-69
2022/11/13 07:58:57;;;;;;;23.70;13.20;;;2.80;99.90;;;;;;5091254;28;20172;-70
2022/11/13 08:01:23;;;;;;;20.27;13.40;;;2.80;99.90;;;;;;5090151;28;20062;-69
2022/11/13 08:03:48;;;;;;;21.75;12.93;;;2.90;99.90;;;;;;5090174;28;20486;-69
2022/11/13 08:06:14;;;;;;;22.80;13.45;;;2.90;99.90;;;;;;5091514;28;20035;-70
2022/11/13 08:08:39;;;;;;;22.73;13.25;;;3.00;99.90;;;;;;5090343;28;20146;-69
2022/11/13 08:11:07;;;;;;;20.98;12.48;;;3.00;99.90;;;;;;5090366;28;20081;-66
2022/11/13 08:13:34;;;;;;;20.85;12.50;;;3.10;99.90;;;;;;5090045;28;20013;-70
2022/11/13 08:16:01;;;;;;;21.85;12.90;;;3.10;99.90;;;;;;5090550;28;20028;-68
2022/11/13 08:18:28;;;;;;;22.55;13.75;;;3.10;99.90;;;;;;5089234;28;20020;-70
2022/11/13 08:20:54;;;;;;;23.15;13.23;;;3.20;99.90;;;;;;5090674;28;20464;-70
2022/11/13 08:23:20;;;;;;;23.58;14.25;;;3.30;99.90;;;;;;5090729;28;20020;-70
2022/11/13 08:25:46;;;;;;;25.50;13.98;;;3.30;99.90;;;;;;5090841;28;20036;-70
2022/11/13 08:28:12;;;;;;;25.10;15.45;;;3.40;99.90;;;;;;5090311;28;20336;-69
2022/11/13 08:30:38;;;;;;;25.73;13.93;;;3.50;99.90;;;;;;5089896;28;20031;-67
2022/11/13 08:33:04;;;;;;;23.10;14.18;;;3.60;99.90;;;;;;5072134;28;20551;-65
2022/11/13 08:35:29;;;;;;;24.08;14.85;;;3.70;99.90;;;;;;5077933;28;20024;-70
2022/11/13 08:38:01;;;;;;;25.15;14.30;;;3.70;99.90;;;;;;5089678;28;20024;-70
2022/11/13 08:40:27;;;;;;;26.80;15.05;;;3.80;99.90;;;;;;5089766;28;20059;-69
2022/11/13 08:42:56;;;;;;;24.38;13.48;;;3.90;99.90;;;;;;5081765;28;20044;-70
2022/11/13 08:45:22;;;;;;;24.90;13.55;;;3.90;99.90;;;;;;5092203;28;20119;-70
2022/11/13 08:47:47;;;;;;;22.65;14.88;;;4.00;99.90;;;;;;5090614;28;20055;-71
2022/11/13 08:50:13;;;;;;;26.20;14.85;;;4.10;99.90;;;;;;5089744;28;20031;-70
2022/11/13 08:52:39;;;;;;;26.23;15.65;;;4.20;99.90;;;;;;5090472;28;21148;-68
2022/11/13 08:55:04;;;;;;;24.38;16.30;;;4.30;99.90;;;;;;5085859;28;20028;-67
2022/11/13 08:57:30;;;;;;;25.75;16.85;;;4.50;99.90;;;;;;5079774;28;20028;-70
2022/11/13 08:59:55;;;;;;;33.83;18.75;;;4.60;99.90;;;;;;5089470;28;20048;-70
2022/11/13 09:02:21;;;;;;;27.60;17.63;;;4.80;99.90;;;;;;5090056;28;20035;-67
2022/11/13 09:04:47;;;;;;;33.03;18.45;;;4.90;99.90;;;;;;5089037;28;20020;-70
2022/11/13 09:07:12;;;;;;;29.38;17.60;;;5.10;99.90;;;;;;5070062;28;20024;-65
2022/11/13 09:09:38;;;;;;;30.85;18.55;;;5.20;99.90;;;;;;5070105;28;20025;-71
2022/11/13 09:12:05;;;;;;;30.92;19.27;;;5.30;99.90;;;;;;5085635;28;20431;-63
2022/11/13 09:14:31;;;;;;;32.47;18.70;;;5.40;99.90;;;;;;5090414;28;20024;-68
2022/11/13 09:16:56;;;;;;;33.63;19.60;;;5.60;99.90;;;;;;5089997;28;20386;-67
2022/11/13 09:19:22;;;;;;;30.02;19.00;;;5.70;99.90;;;;;;5093375;28;20019;-68
2022/11/13 09:21:47;;;;;;;28.27;17.02;;;5.90;99.90;;;;;;5089687;28;20024;-68
2022/11/13 09:24:13;;;;;;;27.67;17.80;;;5.90;99.90;;;;;;5089541;28;20090;-69
2022/11/13 09:26:39;;;;;;;31.35;18.23;;;6.00;99.90;;;;;;5090061;28;20048;-63
2022/11/13 09:29:04;;;;;;;25.70;15.75;;;6.10;99.90;;;;;;5088393;28;20048;-65
2022/11/13 09:31:30;;;;;;;29.30;17.05;;;6.20;99.90;;;;;;5089784;28;20070;-64
2022/11/13 09:33:56;;;;;;;32.08;19.20;;;6.30;99.90;;;;;;5089141;28;20089;-64
2022/11/13 09:36:22;;;;;;;29.20;17.75;;;6.30;99.90;;;;;;5088459;28;20035;-66
2022/11/13 09:38:47;;;;;;;27.50;17.58;;;6.40;99.90;;;;;;5089435;28;20028;-64
2022/11/13 09:41:20;;;;;;;28.17;18.13;;;6.50;99.90;;;;;;5092884;28;20103;-70
2022/11/13 09:43:53;;;;;;;29.33;18.67;;;6.60;99.90;;;;;;5090110;28;20024;-67
2022/11/13 09:46:28;;;;;;;31.75;18.85;;;6.70;99.90;;;;;;5090199;28;20020;-69
2022/11/13 09:49:17;;;;;;;30.10;19.08;;;6.80;99.90;;;;;;5093158;28;20020;-63
2022/11/13 09:52:08;;;;;;;26.75;18.10;;;6.90;99.90;;;;;;5104986;28;20032;-68
2022/11/13 09:54:34;;;;;;;26.60;17.60;;;7.00;99.90;;;;;;5080544;28;20024;-70
2022/11/13 09:57:27;;;;;;;26.30;17.58;;;7.10;99.90;;;;;;5094698;28;20024;-65
2022/11/13 10:00:00;;;;;;;25.88;17.05;;;7.20;99.90;;;;;;5096537;28;20032;-72
2022/11/13 10:02:43;;;;;;;26.08;17.67;;;7.20;99.90;;;;;;5073182;28;20086;-71
2022/11/13 10:05:18;;;;;;;24.40;16.27;;;7.40;99.90;;;;;;5082012;28;20024;-72
2022/11/13 10:07:48;;;;;;;25.52;17.45;;;7.50;99.90;;;;;;5093109;28;20074;-69
2022/11/13 10:10:32;;;;;;;25.88;16.40;;;7.60;99.90;;;;;;5092374;28;20052;-75
2022/11/13 10:13:00;;;;;;;26.50;16.65;;;7.60;99.90;;;;;;5091822;28;20016;-75
2022/11/13 10:15:26;;;;;;;24.67;16.27;;;7.70;99.90;;;;;;5093371;28;20024;-71
2022/11/13 10:18:10;;;;;;;24.92;16.00;;;7.80;99.90;;;;;;5092122;28;20020;-74
2022/11/13 10:20:38;;;;;;;23.00;14.88;;;7.90;99.90;;;;;;5095209;28;20488;-76
2022/11/13 10:23:11;;;;;;;23.67;15.15;;;8.00;99.90;;;;;;5113734;28;20869;-72
2022/11/13 10:25:38;;;;;;;20.33;14.73;;;8.20;99.90;;;;;;5113538;28;20039;-75
2022/11/13 10:28:14;;;;;;;20.17;13.77;;;8.30;99.90;;;;;;5113139;28;20741;-69
2022/11/13 10:30:40;;;;;;;26.60;13.88;;;8.40;99.90;;;;;;5109268;28;20044;-74
2022/11/13 10:33:08;;;;;;;19.58;12.82;;;8.40;99.90;;;;;;5095379;28;20016;-75
2022/11/13 10:36:01;;;;;;;19.85;14.02;;;8.50;99.90;;;;;;5074732;28;20060;-75
2022/11/13 10:38:43;;;;;;;18.50;13.52;;;8.50;99.90;;;;;;5071217;28;20032;-75
2022/11/13 10:41:18;;;;;;;22.88;14.10;;;8.70;99.90;;;;;;5093927;28;20078;-75
2022/11/13 10:44:29;;;;;;;18.38;12.45;;;8.80;99.90;;;;;;5091888;28;20667;-68
2022/11/13 10:47:25;;;;;;;17.33;11.95;;;8.80;99.90;;;;;;5054379;28;20090;-75
2022/11/13 10:49:50;;;;;;;18.02;11.43;;;9.00;99.90;;;;;;5078582;28;20032;-72
2022/11/13 10:52:20;;;;;;;16.50;11.55;;;9.00;99.90;;;;;;5092680;28;20498;-73
2022/11/13 10:54:47;;;;;;;16.13;11.05;;;9.10;99.90;;;;;;5092848;28;20065;-75
2022/11/13 10:57:32;;;;;;;16.20;10.52;;;9.20;99.90;;;;;;5088540;28;20111;-75
2022/11/13 10:59:57;;;;;;;15.70;10.82;;;9.30;99.90;;;;;;5091825;28;20051;-75
2022/11/13 11:02:25;;;;;;;17.20;11.48;;;9.30;99.90;;;;;;5089461;28;20847;-73
2022/11/13 11:05:05;;;;;;;18.40;11.38;;;9.40;99.90;;;;;;5096410;28;20048;-74
2022/11/13 11:07:39;;;;;;;15.52;10.88;;;9.40;99.90;;;;;;5091499;28;20058;-74
2022/11/13 11:10:22;;;;;;;14.75;10.52;;;9.60;99.90;;;;;;5090563;28;20024;-69
2022/11/13 11:12:55;;;;;;;16.60;11.57;;;9.70;99.90;;;;;;5091771;28;20032;-70
2022/11/13 11:15:26;;;;;;;16.88;11.73;;;9.90;99.90;;;;;;5091431;28;20024;-75
2022/11/13 11:17:59;;;;;;;16.75;11.13;;;10.00;99.90;;;;;;5091092;28;20388;-74
2022/11/13 11:20:28;;;;;;;18.77;11.80;;;10.10;99.90;;;;;;5090036;28;20138;-74
2022/11/13 11:23:02;;;;;;;17.33;12.35;;;10.20;99.90;;;;;;5077193;28;20082;-74
2022/11/13 11:25:39;;;;;;;18.55;13.55;;;10.20;99.90;;;;;;5070160;28;20381;-68
2022/11/13 11:28:22;;;;;;;21.20;14.05;;;10.30;99.90;;;;;;5071297;28;20078;-72
2022/11/13 11:31:21;;;;;;;18.90;13.10;;;10.40;99.90;;;;;;5071110;28;20033;-67
2022/11/13 11:34:04;;;;;;;18.85;12.85;;;10.40;99.90;;;;;;5072041;28;20373;-75
2022/11/13 11:36:32;;;;;;;18.00;12.38;;;10.50;99.90;;;;;;5072015;28;20473;-75
2022/11/13 11:39:35;;;;;;;16.55;11.65;;;10.50;99.90;;;;;;5076403;28;20031;-75
2022/11/13 11:42:27;;;;;;;16.40;11.27;;;10.50;99.90;;;;;;5085544;28;20074;-76
2022/11/13 11:45:17;;;;;;;19.50;11.52;;;10.50;99.90;;;;;;5092721;28;20028;-73
2022/11/13 11:47:43;;;;;;;16.25;11.00;;;10.60;99.90;;;;;;5092998;28;20039;-76
2022/11/13 11:50:13;;;;;;;12.80;9.65;;;10.70;99.90;;;;;;5090775;28;20498;-71
2022/11/13 11:53:15;;;;;;;15.68;9.52;;;10.70;99.90;;;;;;5087328;28;20031;-73
2022/11/13 11:56:00;;;;;;;13.25;9.10;;;10.70;99.90;;;;;;5089381;28;20020;-75
2022/11/13 11:58:31;;;;;;;12.70;9.73;;;10.80;99.90;;;;;;5089049;28;20032;-70
2022/11/13 12:01:42;;;;;;;13.15;8.68;;;10.90;99.90;;;;;;5088255;28;20032;-76
2022/11/13 12:04:17;;;;;;;12.88;7.38;;;11.00;99.90;;;;;;5089104;28;20090;-76
2022/11/13 12:07:31;;;;;;;10.45;8.13;;;11.10;99.90;;;;;;5076234;28;20031;-72
2022/11/13 12:10:06;;;;;;;9.52;6.40;;;11.00;99.90;;;;;;5080754;28;20131;-66
2022/11/13 12:12:40;;;;;;;11.88;6.70;;;10.90;99.90;;;;;;5089211;28;20082;-73
2022/11/13 12:15:36;;;;;;;9.73;6.63;;;10.90;99.90;;;;;;5102248;28;20036;-71
2022/11/13 12:18:32;;;;;;;11.95;7.63;;;10.90;99.90;;;;;;5088623;28;20024;-68
2022/11/13 12:21:15;;;;;;;9.25;6.68;;;10.90;99.90;;;;;;5089785;28;20055;-70
2022/11/13 12:24:02;;;;;;;12.52;7.60;;;10.90;99.90;;;;;;5090332;28;20028;-70
2022/11/13 12:26:34;;;;;;;10.10;7.18;;;11.10;99.90;;;;;;5070500;28;20497;-69
2022/11/13 12:29:18;;;;;;;9.43;6.82;;;11.10;99.90;;;;;;5079393;28;20068;-70
2022/11/13 12:32:03;;;;;;;11.75;7.07;;;11.30;99.90;;;;;;5089352;28;20084;-70
2022/11/13 12:34:38;;;;;;;11.52;7.30;;;11.40;99.90;;;;;;5091147;28;20024;-70
2022/11/13 12:37:17;;;;;;;12.55;7.28;;;11.50;99.90;;;;;;5091880;28;20093;-64
2022/11/13 12:40:00;;;;;;;13.77;9.93;;;11.50;99.90;;;;;;5081976;28;20032;-67
2022/11/13 12:42:33;;;;;;;13.48;9.52;;;11.50;99.90;;;;;;5088390;28;20081;-69
2022/11/13 12:45:29;;;;;;;12.07;8.13;;;11.60;99.90;;;;;;5090417;28;20032;-69
2022/11/13 12:47:55;;;;;;;10.02;7.25;;;11.60;99.90;;;;;;5085467;28;20035;-70
2022/11/13 12:50:29;;;;;;;10.48;7.13;;;11.60;99.90;;;;;;5089593;28;20024;-69
2022/11/13 12:53:07;;;;;;;10.10;6.47;;;11.70;99.90;;;;;;5089447;28;20491;-70